createdAt,value
2023-04-16T00:01:04.610Z,1.30
2023-04-16T00:03:33.128Z,1.20
2023-04-16T00:06:01.567Z,1.20
2023-04-16T00:08:29.871Z,1.10
2023-04-16T00:10:59.673Z,0.90
2023-04-16T00:13:27.970Z,0.80
2023-04-16T00:15:56.204Z,0.70
2023-04-16T00:18:24.581Z,0.60
2023-04-16T00:20:53.595Z,0.60
2023-04-16T00:23:22.094Z,0.50
2023-04-16T00:25:50.438Z,0.50
2023-04-16T00:28:19.950Z,0.40
2023-04-16T00:30:48.270Z,0.30
2023-04-16T00:33:17.202Z,0.20
2023-04-16T00:35:47.228Z,0.20
2023-04-16T00:38:15.879Z,0.20
2023-04-16T00:40:44.231Z,0.20
2023-04-16T00:43:12.426Z,0.10
2023-04-16T00:45:42.183Z,0.20
2023-04-16T00:48:10.558Z,0.20
2023-04-16T00:50:38.727Z,0.10
2023-04-16T00:53:07.321Z,0.00
2023-04-16T00:55:35.894Z,0.00
2023-04-16T00:58:04.500Z,-0.10
2023-04-16T01:00:32.859Z,-0.10
2023-04-16T01:03:02.815Z,-0.20
2023-04-16T01:05:31.796Z,-0.20
2023-04-16T01:08:01.256Z,-0.20
2023-04-16T01:10:29.637Z,-0.30
2023-04-16T01:12:57.917Z,-0.30
2023-04-16T01:15:26.324Z,-0.30
2023-04-16T01:17:54.729Z,-0.30
2023-04-16T01:20:24.567Z,-0.30
2023-04-16T01:22:54.406Z,-0.40
2023-04-16T01:25:22.705Z,-0.40
2023-04-16T01:27:51.297Z,-0.40
2023-04-16T01:30:19.630Z,-0.40
2023-04-16T01:32:48.180Z,-0.40
2023-04-16T01:35:18.164Z,-0.50
2023-04-16T01:37:46.546Z,-0.50
2023-04-16T01:40:16.420Z,-0.60
2023-04-16T01:42:44.748Z,-0.60
2023-04-16T01:45:13.417Z,-0.70
2023-04-16T01:47:42.160Z,-0.60
2023-04-16T01:50:11.390Z,-0.70
2023-04-16T01:52:39.619Z,-0.80
2023-04-16T01:55:08.545Z,-0.80
2023-04-16T01:57:38.179Z,-0.90
2023-04-16T02:00:08.475Z,-0.80
2023-04-16T02:02:37.272Z,-0.90
2023-04-16T02:05:06.270Z,-0.90
2023-04-16T02:07:34.649Z,-1.00
2023-04-16T02:10:03.219Z,-1.00
2023-04-16T02:12:31.454Z,-1.00
2023-04-16T02:15:01.551Z,-1.00
2023-04-16T02:17:29.711Z,-1.00
2023-04-16T02:19:57.899Z,-1.00
2023-04-16T02:22:26.238Z,-1.00
2023-04-16T02:24:54.468Z,-1.00
2023-04-16T02:27:22.591Z,-0.80
2023-04-16T02:29:50.866Z,-0.70
2023-04-16T02:32:20.851Z,-0.70
2023-04-16T02:34:49.113Z,-0.80
2023-04-16T02:37:17.434Z,-0.70
2023-04-16T02:39:47.614Z,-0.70
2023-04-16T02:42:16.197Z,-0.80
2023-04-16T02:44:44.511Z,-0.80
2023-04-16T02:47:12.875Z,-0.80
2023-04-16T02:49:42.540Z,-0.90
2023-04-16T02:52:10.849Z,-0.90
2023-04-16T02:54:39.100Z,-1.00
2023-04-16T02:57:07.307Z,-1.10
2023-04-16T02:59:35.618Z,-1.10
2023-04-16T03:02:04.026Z,-1.10
2023-04-16T03:04:33.823Z,-1.20
2023-04-16T03:07:03.333Z,-1.20
2023-04-16T03:09:31.915Z,-1.20
2023-04-16T03:12:00.164Z,-1.20
2023-04-16T03:14:28.472Z,-1.20
2023-04-16T03:16:56.852Z,-1.20
2023-04-16T03:19:25.198Z,-1.20
2023-04-16T03:21:53.391Z,-1.30
2023-04-16T03:24:23.020Z,-1.30
2023-04-16T03:26:51.221Z,-1.20
2023-04-16T03:29:19.328Z,-1.10
2023-04-16T03:31:47.624Z,-1.00
2023-04-16T03:34:16.066Z,-0.90
2023-04-16T03:36:44.303Z,-0.70
2023-04-16T03:39:12.731Z,-0.70
2023-04-16T03:41:43.038Z,-0.60
2023-04-16T03:44:11.424Z,-0.50
2023-04-16T03:46:39.670Z,-0.50
2023-04-16T03:49:08.481Z,-0.50
2023-04-16T03:51:37.021Z,-0.60
2023-04-16T03:54:05.375Z,-0.70
2023-04-16T03:56:33.584Z,-0.70
2023-04-16T03:59:03.252Z,-0.60
2023-04-16T04:01:31.610Z,-0.60
2023-04-16T04:04:00.220Z,-0.60
2023-04-16T04:06:28.729Z,-0.50
2023-04-16T04:08:56.968Z,-0.50
2023-04-16T04:11:25.137Z,-0.40
2023-04-16T04:13:53.341Z,-0.30
2023-04-16T04:16:23.006Z,-0.30
2023-04-16T04:18:51.162Z,-0.20
2023-04-16T04:21:19.449Z,-0.20
2023-04-16T04:23:47.673Z,-0.20
2023-04-16T04:26:15.865Z,-0.10
2023-04-16T04:28:44.390Z,0.00
2023-04-16T04:31:12.925Z,0.10
2023-04-16T04:33:42.453Z,0.10
2023-04-16T04:36:10.676Z,0.20
2023-04-16T04:38:38.895Z,0.30
2023-04-16T04:41:07.107Z,0.30
2023-04-16T04:43:35.231Z,0.40
2023-04-16T04:46:03.516Z,0.40
2023-04-16T04:48:31.747Z,0.40
2023-04-16T04:51:03.533Z,0.40
2023-04-16T04:53:33.085Z,0.40
2023-04-16T04:56:09.300Z,0.50
2023-04-16T04:58:40.269Z,0.60
2023-04-16T05:01:08.598Z,0.60
2023-04-16T05:03:36.936Z,0.60
2023-04-16T05:06:07.814Z,0.60
2023-04-16T05:08:36.180Z,0.60
2023-04-16T05:11:04.410Z,0.60
2023-04-16T05:13:32.849Z,0.60
2023-04-16T05:16:01.292Z,0.70
2023-04-16T05:18:29.505Z,0.80
2023-04-16T05:20:57.728Z,0.90
2023-04-16T05:23:27.438Z,1.00
2023-04-16T05:25:55.701Z,1.00
2023-04-16T05:28:23.869Z,1.00
2023-04-16T05:30:52.303Z,1.10
2023-04-16T05:33:20.986Z,1.10
2023-04-16T05:35:49.249Z,1.20
2023-04-16T05:38:17.525Z,1.20
2023-04-16T05:40:47.054Z,1.40
2023-04-16T05:43:15.374Z,1.50
2023-04-16T05:45:43.762Z,1.60
2023-04-16T05:48:12.462Z,1.70
2023-04-16T05:50:40.709Z,1.80
2023-04-16T05:53:11.019Z,1.80
2023-04-16T05:55:39.181Z,1.90
2023-04-16T05:58:08.912Z,2.00
2023-04-16T06:00:37.321Z,2.10
2023-04-16T06:03:05.793Z,2.10
2023-04-16T06:05:34.404Z,2.20
2023-04-16T06:08:02.697Z,2.30
2023-04-16T06:10:31.449Z,2.40
2023-04-16T06:12:59.814Z,2.50
2023-04-16T06:15:29.359Z,2.60
2023-04-16T06:18:00.263Z,2.60
2023-04-16T06:20:29.371Z,2.70
2023-04-16T06:22:57.957Z,2.80
2023-04-16T06:25:26.258Z,2.90
2023-04-16T06:27:54.675Z,2.90
2023-04-16T06:30:22.903Z,3.00
2023-04-16T06:32:52.737Z,3.10
2023-04-16T06:35:21.335Z,3.20
2023-04-16T06:37:49.553Z,3.40
2023-04-16T06:40:17.793Z,3.50
2023-04-16T06:42:46.286Z,3.50
2023-04-16T06:45:14.968Z,3.70
2023-04-16T06:47:43.204Z,3.80
2023-04-16T06:50:13.168Z,3.90
2023-04-16T06:52:41.613Z,4.00
2023-04-16T06:55:10.621Z,4.00
2023-04-16T06:57:40.779Z,4.20
2023-04-16T07:00:10.341Z,4.40
2023-04-16T07:02:38.623Z,4.60
2023-04-16T07:05:07.547Z,4.60
2023-04-16T07:07:36.995Z,4.70
2023-04-16T07:10:05.925Z,4.80
2023-04-16T07:12:34.412Z,4.90
2023-04-16T07:15:02.643Z,4.90
2023-04-16T07:17:30.740Z,5.10
2023-04-16T07:19:59.094Z,5.30
2023-04-16T07:22:27.317Z,5.40
2023-04-16T07:24:57.093Z,5.40
2023-04-16T07:27:25.828Z,5.60
2023-04-16T07:29:54.843Z,5.70
2023-04-16T07:32:23.680Z,5.80
2023-04-16T07:34:52.158Z,5.90
2023-04-16T07:37:20.492Z,6.20
2023-04-16T07:39:48.761Z,6.40
2023-04-16T07:42:18.682Z,6.40
2023-04-16T07:44:46.799Z,6.80
2023-04-16T07:47:14.993Z,7.20
2023-04-16T07:49:43.350Z,7.60
2023-04-16T07:52:11.498Z,8.00
2023-04-16T07:54:39.746Z,8.20
2023-04-16T07:57:08.061Z,8.70
2023-04-16T07:59:37.656Z,8.80
2023-04-16T08:02:06.335Z,8.80
2023-04-16T08:04:35.232Z,9.20
2023-04-16T08:07:03.542Z,9.60
2023-04-16T08:09:31.768Z,9.80
2023-04-16T08:12:02.104Z,10.20
2023-04-16T08:14:30.365Z,10.60
2023-04-16T08:16:59.847Z,10.30
2023-04-16T08:19:28.220Z,10.40
2023-04-16T08:21:56.795Z,10.80
2023-04-16T08:24:24.941Z,10.30
2023-04-16T08:26:53.250Z,10.60
2023-04-16T08:29:21.943Z,10.30
2023-04-16T08:31:50.319Z,10.80
2023-04-16T08:34:20.309Z,11.30
2023-04-16T08:36:48.641Z,11.50
2023-04-16T08:39:16.890Z,11.50
2023-04-16T08:41:47.880Z,11.70
2023-04-16T08:44:22.533Z,11.20
2023-04-16T08:46:52.544Z,11.50
2023-04-16T08:49:22.063Z,11.40
2023-04-16T08:51:53.383Z,11.50
2023-04-16T08:54:32.226Z,12.00
2023-04-16T08:57:01.469Z,12.00
2023-04-16T08:59:30.682Z,12.30
2023-04-16T09:02:00.178Z,12.20
2023-04-16T09:04:30.942Z,12.40
2023-04-16T09:07:00.551Z,13.10
2023-04-16T09:09:29.371Z,13.60
2023-04-16T09:11:57.798Z,13.40
2023-04-16T09:14:26.504Z,13.10
2023-04-16T09:16:55.720Z,12.80
2023-04-16T09:19:24.839Z,13.30
2023-04-16T09:21:54.546Z,13.20
2023-04-16T09:24:24.031Z,13.80
2023-04-16T09:26:53.903Z,13.90
2023-04-16T09:29:36.182Z,13.50
2023-04-16T09:32:05.518Z,14.10
2023-04-16T09:34:34.716Z,14.20
2023-04-16T09:37:19.713Z,14.30
2023-04-16T09:39:56.252Z,14.80
2023-04-16T09:42:27.479Z,15.30
2023-04-16T09:44:59.445Z,15.40
2023-04-16T09:47:41.149Z,15.00
2023-04-16T09:50:12.425Z,14.40
2023-04-16T09:52:45.578Z,14.50
2023-04-16T09:55:13.900Z,15.10
2023-04-16T09:57:42.061Z,15.80
2023-04-16T10:00:12.124Z,15.10
2023-04-16T10:02:42.912Z,14.20
2023-04-16T10:05:16.849Z,14.10
2023-04-16T10:07:48.769Z,14.30
2023-04-16T10:10:17.106Z,14.70
2023-04-16T10:12:45.392Z,15.40
2023-04-16T10:15:13.681Z,15.90
2023-04-16T10:17:42.305Z,16.30
2023-04-16T10:20:11.395Z,16.70
2023-04-16T10:22:39.957Z,17.70
2023-04-16T10:25:11.442Z,18.50
2023-04-16T10:27:41.302Z,19.00
2023-04-16T10:30:12.161Z,18.60
2023-04-16T10:32:41.012Z,19.50
2023-04-16T10:35:09.945Z,20.20
2023-04-16T10:37:39.120Z,19.80
2023-04-16T10:40:27.719Z,19.70
2023-04-16T10:42:57.474Z,20.40
2023-04-16T10:45:32.251Z,20.10
2023-04-16T10:48:00.551Z,20.60
2023-04-16T10:50:37.206Z,21.40
2023-04-16T10:53:20.047Z,19.80
2023-04-16T10:56:16.375Z,20.70
2023-04-16T10:58:44.628Z,19.70
2023-04-16T11:01:14.620Z,20.00
2023-04-16T11:03:44.399Z,21.00
2023-04-16T11:06:17.696Z,21.00
2023-04-16T11:09:08.455Z,20.00
2023-04-16T11:11:40.276Z,19.60
2023-04-16T11:14:11.462Z,18.80
2023-04-16T11:16:42.653Z,19.20
2023-04-16T11:19:18.745Z,20.60
2023-04-16T11:21:47.065Z,21.30
2023-04-16T11:24:15.430Z,20.40
2023-04-16T11:26:45.150Z,20.70
2023-04-16T11:29:15.930Z,21.20
2023-04-16T11:31:44.179Z,22.30
2023-04-16T11:34:12.541Z,22.30
2023-04-16T11:36:47.494Z,21.50
2023-04-16T11:39:16.154Z,21.90
2023-04-16T11:41:46.326Z,22.00
2023-04-16T11:44:25.322Z,21.70
2023-04-16T11:46:54.684Z,22.10
2023-04-16T11:49:29.267Z,22.50
2023-04-16T11:51:58.221Z,22.00
2023-04-16T11:54:27.097Z,22.20
2023-04-16T11:56:56.900Z,23.20
2023-04-16T11:59:25.553Z,24.20
2023-04-16T12:01:56.251Z,24.00
2023-04-16T12:04:26.144Z,24.30
2023-04-16T12:07:11.011Z,22.90
2023-04-16T12:09:41.058Z,22.80
2023-04-16T12:12:30.849Z,23.30
2023-04-16T12:15:04.017Z,22.90
2023-04-16T12:17:35.208Z,23.10
2023-04-16T12:20:06.300Z,24.20
2023-04-16T12:22:37.308Z,24.30
2023-04-16T12:25:07.772Z,24.50
2023-04-16T12:27:50.695Z,24.60
2023-04-16T12:30:23.246Z,24.80
2023-04-16T12:32:52.980Z,24.60
2023-04-16T12:35:34.521Z,25.00
2023-04-16T12:38:03.617Z,24.90
2023-04-16T12:40:31.942Z,24.50
2023-04-16T12:43:01.662Z,25.20
2023-04-16T12:45:29.881Z,25.60
2023-04-16T12:47:58.055Z,25.90
2023-04-16T12:50:26.434Z,25.30
2023-04-16T12:52:54.785Z,25.10
2023-04-16T12:55:23.231Z,24.60
2023-04-16T12:57:53.053Z,24.90
2023-04-16T13:00:23.313Z,23.30
2023-04-16T13:02:51.645Z,24.20
2023-04-16T13:05:20.280Z,25.00
2023-04-16T13:07:48.710Z,23.60
2023-04-16T13:10:17.395Z,22.00
2023-04-16T13:12:47.018Z,22.00
2023-04-16T13:15:15.263Z,21.60
2023-04-16T13:17:44.893Z,20.90
2023-04-16T13:20:13.347Z,19.90
2023-04-16T13:22:41.674Z,19.40
2023-04-16T13:25:10.981Z,18.00
2023-04-16T13:27:39.251Z,17.40
2023-04-16T13:30:08.868Z,17.00
2023-04-16T13:32:37.137Z,16.00
2023-04-16T13:35:07.569Z,15.90
2023-04-16T13:37:36.298Z,16.00
2023-04-16T13:40:04.585Z,15.80
2023-04-16T13:42:32.846Z,15.00
2023-04-16T13:45:01.373Z,14.40
2023-04-16T13:47:30.183Z,13.80
2023-04-16T13:49:58.633Z,13.50
2023-04-16T13:52:28.301Z,13.30
2023-04-16T13:54:58.352Z,13.30
2023-04-16T13:57:27.981Z,13.30
2023-04-16T13:59:56.970Z,13.30
2023-04-16T14:02:26.096Z,13.30
2023-04-16T14:04:54.873Z,13.30
2023-04-16T14:07:26.206Z,13.20
2023-04-16T14:09:56.203Z,13.20
2023-04-16T14:12:24.390Z,13.20
2023-04-16T14:14:52.591Z,13.30
2023-04-16T14:17:21.009Z,13.30
2023-04-16T14:19:49.220Z,13.40
2023-04-16T14:22:18.477Z,13.60
2023-04-16T14:24:46.642Z,13.60
2023-04-16T14:27:16.938Z,13.70
2023-04-16T14:29:46.543Z,13.80
2023-04-16T14:32:14.741Z,13.70
2023-04-16T14:34:42.923Z,13.80
2023-04-16T14:37:11.265Z,13.80
2023-04-16T14:39:39.801Z,13.70
2023-04-16T14:42:07.965Z,13.80
2023-04-16T14:44:37.605Z,14.00
2023-04-16T14:47:06.042Z,13.90
2023-04-16T14:49:35.314Z,14.00
2023-04-16T14:52:05.752Z,13.80
2023-04-16T14:54:34.333Z,13.70
2023-04-16T14:57:03.529Z,13.80
2023-04-16T14:59:32.490Z,13.70
2023-04-16T15:02:02.256Z,13.70
2023-04-16T15:04:31.611Z,13.50
2023-04-16T15:07:00.781Z,13.50
2023-04-16T15:09:29.143Z,13.70
2023-04-16T15:11:58.147Z,13.90
2023-04-16T15:14:26.423Z,14.00
2023-04-16T15:16:55.148Z,13.80
2023-04-16T15:19:24.733Z,13.60
2023-04-16T15:21:53.129Z,13.60
2023-04-16T15:24:21.570Z,13.60
2023-04-16T15:26:49.776Z,13.40
2023-04-16T15:29:18.072Z,13.50
2023-04-16T15:31:46.350Z,13.30
2023-04-16T15:34:14.489Z,13.20
2023-04-16T15:36:44.027Z,13.20
2023-04-16T15:39:12.535Z,13.10
2023-04-16T15:41:53.687Z,13.10
2023-04-16T15:44:28.071Z,13.00
2023-04-16T15:46:56.523Z,12.80
2023-04-16T15:49:24.822Z,12.80
2023-04-16T15:51:54.595Z,12.60
2023-04-16T15:54:22.777Z,12.50
2023-04-16T15:56:51.573Z,12.60
2023-04-16T15:59:20.069Z,12.60
2023-04-16T16:01:48.300Z,12.50
2023-04-16T16:04:16.537Z,12.50
2023-04-16T16:06:45.214Z,12.40
2023-04-16T16:09:14.847Z,12.40
2023-04-16T16:11:42.980Z,12.20
2023-04-16T16:14:11.468Z,12.20
2023-04-16T16:16:39.819Z,12.30
2023-04-16T16:19:08.287Z,12.30
2023-04-16T16:21:36.673Z,12.20
2023-04-16T16:24:04.949Z,12.10
2023-04-16T16:26:34.674Z,12.00
2023-04-16T16:29:02.898Z,11.90
2023-04-16T16:31:31.431Z,11.90
2023-04-16T16:33:59.723Z,11.80
2023-04-16T16:36:29.853Z,11.60
2023-04-16T16:38:58.000Z,11.60
2023-04-16T16:41:26.405Z,11.50
2023-04-16T16:43:56.955Z,11.50
2023-04-16T16:46:25.165Z,11.40
2023-04-16T16:48:53.488Z,11.40
2023-04-16T16:51:21.850Z,11.30
2023-04-16T16:53:50.043Z,11.30
2023-04-16T16:56:18.412Z,11.20
2023-04-16T16:58:46.919Z,11.10
2023-04-16T17:01:16.562Z,11.00
2023-04-16T17:03:44.880Z,11.00
2023-04-16T17:06:13.503Z,10.90
2023-04-16T17:08:41.892Z,10.90
2023-04-16T17:11:10.208Z,10.90
2023-04-16T17:13:38.560Z,10.70
2023-04-16T17:16:07.033Z,10.70
2023-04-16T17:18:36.778Z,10.60
2023-04-16T17:21:05.312Z,10.50
2023-04-16T17:23:33.462Z,10.40
2023-04-16T17:26:01.856Z,10.30
2023-04-16T17:28:30.380Z,10.30
2023-04-16T17:30:58.646Z,10.20
2023-04-16T17:33:26.841Z,10.10
2023-04-16T17:35:56.655Z,9.90
2023-04-16T17:38:24.849Z,9.80
2023-04-16T17:40:52.930Z,9.60
2023-04-16T17:43:21.487Z,9.50
2023-04-16T17:45:49.672Z,9.30
2023-04-16T17:48:17.966Z,9.10
2023-04-16T17:50:46.302Z,9.00
2023-04-16T17:53:15.995Z,8.80
2023-04-16T17:55:52.813Z,8.70
2023-04-16T17:58:22.493Z,8.50
2023-04-16T18:00:50.667Z,8.30
2023-04-16T18:03:20.666Z,8.20
2023-04-16T18:05:50.495Z,8.10
2023-04-16T18:08:20.398Z,7.90
2023-04-16T18:10:48.637Z,7.70
2023-04-16T18:13:16.846Z,7.60
2023-04-16T18:15:45.604Z,7.40
2023-04-16T18:18:13.849Z,7.20
2023-04-16T18:20:42.452Z,7.10
2023-04-16T18:23:10.745Z,6.90
2023-04-16T18:25:40.668Z,6.80
2023-04-16T18:28:09.530Z,6.70
2023-04-16T18:30:40.430Z,6.50
2023-04-16T18:33:37.417Z,6.40
2023-04-16T18:35:57.336Z,6.40
2023-04-16T18:38:25.712Z,6.20
2023-04-16T18:40:55.317Z,6.20
2023-04-16T18:43:23.935Z,6.10
2023-04-16T18:45:52.189Z,6.00
2023-04-16T18:48:20.362Z,5.90
2023-04-16T18:50:48.803Z,5.80
2023-04-16T18:53:16.868Z,5.70
2023-04-16T18:55:45.062Z,5.60
2023-04-16T18:58:14.739Z,5.50
2023-04-16T19:00:42.926Z,5.40
2023-04-16T19:03:11.192Z,5.30
2023-04-16T19:05:39.673Z,5.20
2023-04-16T19:08:07.910Z,5.10
2023-04-16T19:10:36.187Z,5.00
2023-04-16T19:13:04.688Z,4.90
2023-04-16T19:15:34.956Z,4.80
2023-04-16T19:18:03.500Z,4.80
2023-04-16T19:20:34.674Z,4.70
2023-04-16T19:23:05.350Z,4.70
2023-04-16T19:25:33.812Z,4.60
2023-04-16T19:28:02.133Z,4.50
2023-04-16T19:30:30.682Z,4.50
2023-04-16T19:33:00.201Z,4.40
2023-04-16T19:35:30.172Z,4.30
2023-04-16T19:37:58.674Z,4.30
2023-04-16T19:40:26.858Z,4.20
2023-04-16T19:42:55.154Z,4.20
2023-04-16T19:45:26.055Z,4.10
2023-04-16T19:47:54.323Z,4.00
2023-04-16T19:50:23.992Z,4.00
2023-04-16T19:52:52.258Z,3.90
2023-04-16T19:55:20.564Z,3.80
2023-04-16T19:57:49.550Z,3.70
2023-04-16T20:00:18.337Z,3.70
2023-04-16T20:02:46.701Z,3.60
2023-04-16T20:05:15.353Z,3.60
2023-04-16T20:07:44.950Z,3.60
2023-04-16T20:10:13.121Z,3.50
2023-04-16T20:12:41.641Z,3.40
2023-04-16T20:15:10.662Z,3.40
2023-04-16T20:17:38.913Z,3.30
2023-04-16T20:20:10.303Z,3.20
2023-04-16T20:22:38.618Z,3.10
2023-04-16T20:25:09.649Z,3.00
2023-04-16T20:27:38.081Z,2.90
2023-04-16T20:30:07.415Z,2.80
2023-04-16T20:32:36.061Z,2.80
2023-04-16T20:35:10.404Z,2.70
2023-04-16T20:37:39.175Z,2.60
2023-04-16T20:40:10.841Z,2.50
2023-04-16T20:42:40.957Z,2.40
2023-04-16T20:45:11.210Z,2.30
2023-04-16T20:47:39.557Z,2.20
2023-04-16T20:50:09.114Z,2.20
2023-04-16T20:52:37.570Z,2.10
2023-04-16T20:55:06.562Z,2.10
2023-04-16T20:57:36.408Z,2.10
2023-04-16T21:00:09.243Z,2.00
2023-04-16T21:02:37.697Z,1.90
2023-04-16T21:05:10.390Z,1.80
2023-04-16T21:07:38.632Z,1.70
2023-04-16T21:10:07.917Z,1.70
2023-04-16T21:12:38.074Z,1.60
2023-04-16T21:15:07.379Z,1.60
2023-04-16T21:17:35.862Z,1.50
2023-04-16T21:20:07.098Z,1.60
2023-04-16T21:22:35.313Z,1.60
2023-04-16T21:25:03.864Z,1.50
2023-04-16T21:27:32.215Z,1.60
2023-04-16T21:30:01.817Z,1.60
2023-04-16T21:32:29.970Z,1.60
2023-04-16T21:34:58.544Z,1.60
2023-04-16T21:37:26.718Z,1.60
2023-04-16T21:39:54.930Z,1.50
2023-04-16T21:42:23.273Z,1.50
2023-04-16T21:44:51.470Z,1.50
2023-04-16T21:47:21.218Z,1.40
2023-04-16T21:49:49.557Z,1.40
2023-04-16T21:52:19.213Z,1.30
2023-04-16T21:54:47.851Z,1.10
2023-04-16T21:57:16.221Z,1.10
2023-04-16T21:59:44.410Z,1.00
2023-04-16T22:02:12.627Z,0.90
2023-04-16T22:04:43.664Z,0.90
2023-04-16T22:07:11.923Z,0.80
2023-04-16T22:09:40.485Z,0.80
2023-04-16T22:12:10.324Z,0.70
2023-04-16T22:14:43.938Z,0.70
2023-04-16T22:17:18.220Z,0.60
2023-04-16T22:19:48.961Z,0.50
2023-04-16T22:22:17.140Z,0.50
2023-04-16T22:24:45.332Z,0.40
2023-04-16T22:27:13.383Z,0.40
2023-04-16T22:29:41.699Z,0.40
2023-04-16T22:32:10.052Z,0.30
2023-04-16T22:34:38.183Z,0.30
2023-04-16T22:37:08.243Z,0.30
2023-04-16T22:39:37.023Z,0.20
2023-04-16T22:42:05.521Z,0.10
2023-04-16T22:44:33.687Z,0.10
2023-04-16T22:47:02.163Z,0.10
2023-04-16T22:49:33.248Z,0.00
2023-04-16T22:52:01.739Z,0.00
2023-04-16T22:54:31.969Z,0.00
2023-04-16T22:57:00.193Z,-0.10
2023-04-16T22:59:28.401Z,-0.10
2023-04-16T23:01:56.764Z,-0.20
2023-04-16T23:04:25.224Z,-0.20
2023-04-16T23:06:53.478Z,-0.20
2023-04-16T23:09:22.557Z,-0.20
2023-04-16T23:11:52.124Z,-0.20
2023-04-16T23:14:21.357Z,-0.20
2023-04-16T23:16:49.709Z,-0.20
2023-04-16T23:19:17.906Z,-0.30
2023-04-16T23:21:46.106Z,-0.30
2023-04-16T23:24:14.520Z,-0.30
2023-04-16T23:26:42.851Z,-0.30
2023-04-16T23:29:12.693Z,-0.40
2023-04-16T23:31:41.181Z,-0.40
2023-04-16T23:34:09.319Z,-0.50
2023-04-16T23:36:37.442Z,-0.50
2023-04-16T23:39:05.761Z,-0.60
2023-04-16T23:41:33.931Z,-0.50
2023-04-16T23:44:02.097Z,-0.50
2023-04-16T23:46:31.872Z,-0.50
2023-04-16T23:49:00.158Z,-0.50
2023-04-16T23:51:28.346Z,-0.50
2023-04-16T23:53:56.710Z,-0.60
2023-04-16T23:56:24.849Z,-0.60
2023-04-16T23:58:53.116Z,-0.60
